createdAt,value
2023-05-05T00:00:34.846Z,101148.34
2023-05-05T00:03:04.902Z,101146.69
2023-05-05T00:05:35.257Z,101135.63
2023-05-05T00:08:05.330Z,101141.13
2023-05-05T00:10:35.710Z,101132.56
2023-05-05T00:13:05.682Z,101136.47
2023-05-05T00:15:36.086Z,101132.38
2023-05-05T00:18:06.331Z,101123.78
2023-05-05T00:20:37.005Z,101123.78
2023-05-05T00:23:07.035Z,101118.97
2023-05-05T00:25:37.457Z,101106.09
2023-05-05T00:28:07.469Z,101101.41
2023-05-05T00:30:39.184Z,101095.91
2023-05-05T00:33:09.201Z,101097.16
2023-05-05T00:35:39.629Z,101102.16
2023-05-05T00:38:09.674Z,101106.03
2023-05-05T00:40:40.265Z,101099.41
2023-05-05T00:43:10.292Z,101095.13
2023-05-05T00:45:43.970Z,101115.69
2023-05-05T00:48:13.926Z,101114.47
2023-05-05T00:50:46.137Z,101118.16
2023-05-05T00:53:16.133Z,101104.41
2023-05-05T00:55:46.710Z,101102.28
2023-05-05T00:58:17.012Z,101103.00
2023-05-05T01:00:47.760Z,101096.19
2023-05-05T01:03:17.850Z,101086.56
2023-05-05T01:06:05.441Z,101083.88
2023-05-05T01:08:47.414Z,101087.63
2023-05-05T01:11:40.137Z,101104.63
2023-05-05T01:14:20.501Z,101116.75
2023-05-05T01:17:15.606Z,101108.41
2023-05-05T01:20:00.727Z,101101.38
2023-05-05T01:22:41.218Z,101098.88
2023-05-05T01:25:28.651Z,101100.50
2023-05-05T01:28:04.813Z,101099.78
2023-05-05T01:30:43.245Z,101096.22
2023-05-05T01:33:20.180Z,101091.41
2023-05-05T01:35:54.810Z,101086.56
2023-05-05T01:38:31.859Z,101081.22
2023-05-05T01:41:10.963Z,101076.06
2023-05-05T01:43:42.694Z,101081.75
2023-05-05T01:46:15.259Z,101094.63
2023-05-05T01:48:47.117Z,101097.69
2023-05-05T01:51:19.363Z,101104.06
2023-05-05T01:53:51.429Z,101099.97
2023-05-05T01:56:24.508Z,101085.19
2023-05-05T01:58:56.020Z,101069.63
2023-05-05T02:01:28.134Z,101068.75
2023-05-05T02:03:59.924Z,101060.94
2023-05-05T02:06:34.321Z,101073.72
2023-05-05T02:09:05.073Z,101078.34
2023-05-05T02:11:35.921Z,101068.75
2023-05-05T02:14:08.554Z,101076.38
2023-05-05T02:16:42.300Z,101079.41
2023-05-05T02:19:14.640Z,101070.88
2023-05-05T02:21:44.830Z,101071.75
2023-05-05T02:24:15.118Z,101080.66
2023-05-05T02:26:50.714Z,101068.91
2023-05-05T02:29:43.099Z,101065.84
2023-05-05T02:32:18.406Z,101067.09
2023-05-05T02:34:51.138Z,101072.06
2023-05-05T02:37:25.693Z,101061.88
2023-05-05T02:40:07.849Z,101053.69
2023-05-05T02:42:42.122Z,101044.59
2023-05-05T02:45:17.676Z,101038.91
2023-05-05T02:47:50.691Z,101036.97
2023-05-05T02:50:21.400Z,101037.66
2023-05-05T02:53:03.459Z,101051.22
2023-05-05T02:55:43.415Z,101058.19
2023-05-05T02:58:44.356Z,101055.81
2023-05-05T03:01:30.912Z,101064.22
2023-05-05T03:04:11.385Z,101056.19
2023-05-05T03:06:52.318Z,101065.63
2023-05-05T03:09:34.978Z,101079.03
2023-05-05T03:12:12.104Z,101083.50
2023-05-05T03:14:57.381Z,101082.59
2023-05-05T03:17:29.402Z,101082.47
2023-05-05T03:20:03.467Z,101072.66
2023-05-05T03:22:40.129Z,101068.50
2023-05-05T03:25:14.666Z,101076.75
2023-05-05T03:27:44.796Z,101080.50
2023-05-05T03:30:21.243Z,101071.47
2023-05-05T03:32:54.120Z,101081.63
2023-05-05T03:35:25.198Z,101077.84
2023-05-05T03:37:56.764Z,101074.63
2023-05-05T03:40:40.340Z,101066.63
2023-05-05T03:43:11.068Z,101066.63
2023-05-05T03:45:41.639Z,101068.06
2023-05-05T03:48:12.005Z,101067.34
2023-05-05T03:50:47.348Z,101067.53
2023-05-05T03:53:19.733Z,101088.22
2023-05-05T03:55:50.509Z,101098.72
2023-05-05T03:58:20.742Z,101096.44
2023-05-05T04:00:51.496Z,101080.75
2023-05-05T04:03:23.183Z,101078.78
2023-05-05T04:05:54.071Z,101087.03
2023-05-05T04:08:24.722Z,101081.81
2023-05-05T04:10:55.268Z,101071.47
2023-05-05T04:13:25.721Z,101069.00
2023-05-05T04:15:57.551Z,101055.38
2023-05-05T04:18:27.938Z,101060.38
2023-05-05T04:20:58.391Z,101058.97
2023-05-05T04:23:28.913Z,101067.56
2023-05-05T04:25:59.524Z,101059.19
2023-05-05T04:28:30.310Z,101063.81
2023-05-05T04:31:02.231Z,101065.97
2023-05-05T04:33:34.208Z,101065.63
2023-05-05T04:36:05.702Z,101050.97
2023-05-05T04:38:35.995Z,101044.19
2023-05-05T04:41:07.690Z,101048.81
2023-05-05T04:43:39.507Z,101051.34
2023-05-05T04:46:10.123Z,101049.53
2023-05-05T04:48:40.851Z,101058.78
2023-05-05T04:51:11.655Z,101054.16
2023-05-05T04:53:41.922Z,101056.13
2023-05-05T04:56:12.333Z,101046.50
2023-05-05T04:58:42.796Z,101039.69
2023-05-05T05:01:13.194Z,101048.03
2023-05-05T05:03:43.429Z,101062.53
2023-05-05T05:06:14.955Z,101063.78
2023-05-05T05:08:44.997Z,101063.44
2023-05-05T05:11:16.555Z,101072.31
2023-05-05T05:13:47.420Z,101082.53
2023-05-05T05:16:18.058Z,101095.19
2023-05-05T05:18:48.077Z,101100.50
2023-05-05T05:21:18.602Z,101103.91
2023-05-05T05:23:48.650Z,101105.72
2023-05-05T05:26:19.289Z,101106.44
2023-05-05T05:28:49.502Z,101102.84
2023-05-05T05:31:20.043Z,101094.84
2023-05-05T05:33:50.045Z,101103.78
2023-05-05T05:36:21.141Z,101093.41
2023-05-05T05:38:51.361Z,101091.47
2023-05-05T05:41:22.748Z,101092.19
2023-05-05T05:43:52.785Z,101080.75
2023-05-05T05:46:23.331Z,101060.34
2023-05-05T05:48:53.383Z,101057.09
2023-05-05T05:51:23.807Z,101057.47
2023-05-05T05:53:55.110Z,101063.34
2023-05-05T05:56:26.693Z,101061.91
2023-05-05T05:58:58.216Z,101060.88
2023-05-05T06:01:28.548Z,101058.03
2023-05-05T06:03:59.241Z,101066.06
2023-05-05T06:06:29.420Z,101062.16
2023-05-05T06:08:59.842Z,101060.34
2023-05-05T06:11:29.856Z,101080.19
2023-05-05T06:14:00.388Z,101064.13
2023-05-05T06:16:30.345Z,101072.13
2023-05-05T06:19:03.561Z,101075.34
2023-05-05T06:21:33.442Z,101079.81
2023-05-05T06:24:04.028Z,101083.38
2023-05-05T06:26:35.144Z,101074.56
2023-05-05T06:29:05.641Z,101071.19
2023-05-05T06:31:35.560Z,101074.09
2023-05-05T06:34:05.380Z,101075.19
2023-05-05T06:36:35.804Z,101075.19
2023-05-05T06:39:05.814Z,101087.47
2023-05-05T06:41:35.603Z,101086.75
2023-05-05T06:44:06.335Z,101081.22
2023-05-05T06:46:36.275Z,101090.34
2023-05-05T06:49:06.633Z,101101.59
2023-05-05T06:51:37.344Z,101095.13
2023-05-05T06:54:07.752Z,101101.50
2023-05-05T06:56:37.453Z,101098.94
2023-05-05T06:59:07.766Z,101094.09
2023-05-05T07:01:37.462Z,101091.09
2023-05-05T07:04:08.039Z,101095.72
2023-05-05T07:06:37.933Z,101101.03
2023-05-05T07:09:08.251Z,101092.19
2023-05-05T07:11:39.040Z,101104.28
2023-05-05T07:14:09.415Z,101114.31
2023-05-05T07:16:39.448Z,101113.06
2023-05-05T07:19:09.857Z,101128.59
2023-05-05T07:21:40.827Z,101134.47
2023-05-05T07:24:11.203Z,101140.72
2023-05-05T07:26:41.115Z,101134.16
2023-05-05T07:29:11.821Z,101137.75
2023-05-05T07:31:41.826Z,101144.00
2023-05-05T07:34:12.210Z,101141.47
2023-05-05T07:36:42.191Z,101147.91
2023-05-05T07:39:12.991Z,101151.16
2023-05-05T07:41:43.803Z,101150.06
2023-05-05T07:44:14.181Z,101137.56
2023-05-05T07:46:44.112Z,101125.00
2023-05-05T07:49:14.689Z,101126.22
2023-05-05T07:51:44.775Z,101128.72
2023-05-05T07:54:15.205Z,101107.78
2023-05-05T07:56:45.329Z,101091.53
2023-05-05T07:59:15.829Z,101084.03
2023-05-05T08:01:45.740Z,101092.06
2023-05-05T08:04:16.091Z,101090.41
2023-05-05T08:06:46.012Z,101097.22
2023-05-05T08:09:16.348Z,101093.56
2023-05-05T08:11:46.270Z,101084.03
2023-05-05T08:14:16.763Z,101088.84
2023-05-05T08:16:46.714Z,101085.00
2023-05-05T08:19:28.600Z,101086.41
2023-05-05T08:22:01.310Z,101092.06
2023-05-05T08:24:32.047Z,101078.13
2023-05-05T08:27:02.711Z,101076.50
2023-05-05T08:29:33.001Z,101066.50
2023-05-05T08:32:02.754Z,101061.41
2023-05-05T08:34:33.306Z,101066.41
2023-05-05T08:37:03.164Z,101072.53
2023-05-05T08:39:32.946Z,101072.56
2023-05-05T08:42:03.482Z,101067.38
2023-05-05T08:44:33.426Z,101070.81
2023-05-05T08:47:04.326Z,101063.09
2023-05-05T08:49:47.246Z,101046.59
2023-05-05T08:52:22.054Z,101036.06
2023-05-05T08:55:07.937Z,101033.63
2023-05-05T08:57:51.119Z,101044.75
2023-05-05T09:00:22.359Z,101042.41
2023-05-05T09:02:53.026Z,101040.47
2023-05-05T09:05:23.242Z,101037.41
2023-05-05T09:07:53.753Z,101057.91
2023-05-05T09:10:24.116Z,101062.50
2023-05-05T09:12:55.033Z,101061.25
2023-05-05T09:15:25.080Z,101055.19
2023-05-05T09:17:59.327Z,101049.84
2023-05-05T09:20:37.140Z,101046.78
2023-05-05T09:23:18.423Z,101038.84
2023-05-05T09:26:10.024Z,101038.75
2023-05-05T09:28:40.460Z,101035.63
2023-05-05T09:31:17.131Z,101040.75
2023-05-05T09:33:48.088Z,101039.38
2023-05-05T09:36:18.070Z,101035.06
2023-05-05T09:39:20.751Z,101026.66
2023-05-05T09:41:51.101Z,101027.22
2023-05-05T09:44:38.185Z,101019.69
2023-05-05T09:47:22.091Z,101019.50
2023-05-05T09:50:01.241Z,101026.25
2023-05-05T09:52:31.643Z,101022.31
2023-05-05T09:55:01.971Z,101033.16
2023-05-05T09:57:35.063Z,101046.97
2023-05-05T10:00:07.133Z,101052.91
2023-05-05T10:02:39.736Z,101048.88
2023-05-05T10:05:14.403Z,101049.97
2023-05-05T10:07:46.458Z,101048.44
2023-05-05T10:10:18.446Z,101051.06
2023-05-05T10:12:49.066Z,101058.81
2023-05-05T10:15:20.071Z,101062.91
2023-05-05T10:18:05.997Z,101057.50
2023-05-05T10:20:40.139Z,101059.34
2023-05-05T10:23:11.885Z,101077.72
2023-05-05T10:25:48.382Z,101080.44
2023-05-05T10:28:25.168Z,101098.94
2023-05-05T10:31:00.136Z,101100.34
2023-05-05T10:33:46.404Z,101113.59
2023-05-05T10:36:17.772Z,101119.78
2023-05-05T10:38:48.393Z,101116.22
2023-05-05T10:41:22.342Z,101112.81
2023-05-05T10:43:54.524Z,101109.44
2023-05-05T10:46:24.939Z,101109.94
2023-05-05T10:49:21.661Z,101098.88
2023-05-05T10:52:05.981Z,101094.78
2023-05-05T10:54:46.796Z,101103.13
2023-05-05T10:57:20.149Z,101089.22
2023-05-05T10:59:50.103Z,101092.91
2023-05-05T11:02:27.844Z,101110.38
2023-05-05T11:05:10.037Z,101113.63
2023-05-05T11:07:40.897Z,101107.56
2023-05-05T11:10:12.814Z,101104.88
2023-05-05T11:13:12.078Z,101096.47
2023-05-05T11:15:41.704Z,101096.31
2023-05-05T11:18:31.756Z,101091.34
2023-05-05T11:21:01.609Z,101096.41
2023-05-05T11:23:32.413Z,101085.94
2023-05-05T11:26:02.996Z,101093.88
2023-05-05T11:28:33.397Z,101094.81
2023-05-05T11:31:03.707Z,101114.88
2023-05-05T11:33:39.228Z,101113.97
2023-05-05T11:36:14.346Z,101115.94
2023-05-05T11:38:56.761Z,101107.94
2023-05-05T11:41:35.201Z,101104.28
2023-05-05T11:44:17.054Z,101112.19
2023-05-05T11:46:53.419Z,101125.03
2023-05-05T11:49:34.448Z,101143.59
2023-05-05T11:52:05.741Z,101165.69
2023-05-05T11:54:43.336Z,101177.25
2023-05-05T11:57:13.846Z,101183.00
2023-05-05T11:59:57.667Z,101179.78
2023-05-05T12:02:29.768Z,101180.97
2023-05-05T12:05:01.664Z,101196.50
2023-05-05T12:07:34.308Z,101224.28
2023-05-05T12:10:04.353Z,101226.25
2023-05-05T12:12:39.695Z,101218.63
2023-05-05T12:15:10.742Z,101203.47
2023-05-05T12:17:45.869Z,101199.41
2023-05-05T12:20:16.079Z,101198.91
2023-05-05T12:22:46.500Z,101229.47
2023-05-05T12:25:17.257Z,101263.69
2023-05-05T12:27:57.072Z,101274.97
2023-05-05T12:30:27.130Z,101271.97
2023-05-05T12:33:08.487Z,101254.13
2023-05-05T12:35:38.990Z,101242.75
2023-05-05T12:38:09.699Z,101239.03
2023-05-05T12:40:50.768Z,101224.09
2023-05-05T12:43:32.789Z,101237.09
2023-05-05T12:46:13.033Z,101243.00
2023-05-05T12:48:48.350Z,101245.41
2023-05-05T12:51:19.374Z,101258.66
2023-05-05T12:53:51.610Z,101272.50
2023-05-05T12:56:50.580Z,101271.78
2023-05-05T12:59:23.861Z,101263.38
2023-05-05T13:01:55.962Z,101261.91
2023-05-05T13:04:28.573Z,101278.31
2023-05-05T13:07:15.911Z,101294.31
2023-05-05T13:09:47.155Z,101303.22
2023-05-05T13:12:21.110Z,101300.50
2023-05-05T13:14:52.550Z,101305.47
2023-05-05T13:17:22.577Z,101307.34
2023-05-05T13:19:53.373Z,101307.28
2023-05-05T13:22:23.388Z,101289.44
2023-05-05T13:24:53.873Z,101273.00
2023-05-05T13:27:23.972Z,101263.19
2023-05-05T13:29:54.474Z,101258.00
2023-05-05T13:32:24.570Z,101260.19
2023-05-05T13:34:55.226Z,101262.69
2023-05-05T13:37:25.432Z,101250.34
2023-05-05T13:40:00.275Z,101235.69
2023-05-05T13:42:30.224Z,101240.53
2023-05-05T13:45:00.586Z,101231.94
2023-05-05T13:47:31.266Z,101221.78
2023-05-05T13:50:01.854Z,101210.16
2023-05-05T13:52:32.399Z,101210.34
2023-05-05T13:55:03.958Z,101207.09
2023-05-05T13:57:33.669Z,101213.56
2023-05-05T14:00:05.619Z,101197.97
2023-05-05T14:02:36.875Z,101194.25
2023-05-05T14:05:08.324Z,101187.44
2023-05-05T14:07:38.389Z,101188.53
2023-05-05T14:10:09.641Z,101193.50
2023-05-05T14:12:39.640Z,101186.91
2023-05-05T14:15:10.610Z,101181.75
2023-05-05T14:17:40.877Z,101182.28
2023-05-05T14:20:11.749Z,101170.28
2023-05-05T14:22:43.300Z,101168.34
2023-05-05T14:25:13.616Z,101168.34
2023-05-05T14:27:43.528Z,101165.81
2023-05-05T14:30:14.369Z,101181.38
2023-05-05T14:32:44.406Z,101188.13
2023-05-05T14:35:14.957Z,101202.47
2023-05-05T14:37:44.901Z,101219.59
2023-05-05T14:40:15.343Z,101226.06
2023-05-05T14:42:45.333Z,101237.47
2023-05-05T14:45:15.656Z,101253.75
2023-05-05T14:47:45.723Z,101252.34
2023-05-05T14:50:16.098Z,101265.00
2023-05-05T14:52:45.810Z,101280.19
2023-05-05T14:55:16.144Z,101293.72
2023-05-05T14:57:45.959Z,101289.28
2023-05-05T15:00:16.814Z,101278.00
2023-05-05T15:02:49.178Z,101247.78
2023-05-05T15:05:20.483Z,101235.78
2023-05-05T15:07:50.468Z,101240.06
2023-05-05T15:10:21.983Z,101237.38
2023-05-05T15:12:52.370Z,101246.66
2023-05-05T15:15:22.658Z,101256.31
2023-05-05T15:17:52.640Z,101247.88
2023-05-05T15:20:22.984Z,101233.78
2023-05-05T15:22:52.919Z,101226.66
2023-05-05T15:25:23.504Z,101227.19
2023-05-05T15:27:53.420Z,101231.44
2023-05-05T15:30:23.784Z,101224.81
2023-05-05T15:32:54.238Z,101216.78
2023-05-05T15:35:26.649Z,101209.47
2023-05-05T15:37:56.641Z,101211.97
2023-05-05T15:40:27.042Z,101207.34
2023-05-05T15:42:56.986Z,101187.34
2023-05-05T15:45:27.545Z,101177.50
2023-05-05T15:47:57.481Z,101170.56
2023-05-05T15:50:27.921Z,101156.47
2023-05-05T15:52:58.398Z,101168.06
2023-05-05T15:55:29.205Z,101160.03
2023-05-05T15:57:59.128Z,101144.66
2023-05-05T16:00:29.538Z,101136.09
2023-05-05T16:02:59.605Z,101123.56
2023-05-05T16:05:29.984Z,101126.22
2023-05-05T16:07:59.872Z,101129.22
2023-05-05T16:10:30.459Z,101139.59
2023-05-05T16:13:00.428Z,101140.69
2023-05-05T16:15:30.804Z,101135.16
2023-05-05T16:18:00.766Z,101133.22
2023-05-05T16:20:31.117Z,101131.22
2023-05-05T16:23:01.009Z,101135.22
2023-05-05T16:25:31.321Z,101139.31
2023-05-05T16:28:02.774Z,101121.63
2023-05-05T16:30:33.196Z,101100.72
2023-05-05T16:33:03.215Z,101076.78
2023-05-05T16:35:33.732Z,101057.34
2023-05-05T16:38:04.051Z,101050.72
2023-05-05T16:40:34.482Z,101058.25
2023-05-05T16:43:04.188Z,101068.38
2023-05-05T16:45:37.593Z,101065.69
2023-05-05T16:48:09.060Z,101061.59
2023-05-05T16:50:39.724Z,101070.53
2023-05-05T16:53:11.114Z,101078.91
2023-05-05T16:55:41.448Z,101075.72
2023-05-05T16:58:11.189Z,101075.25
2023-05-05T17:00:41.662Z,101086.31
2023-05-05T17:03:11.592Z,101085.63
2023-05-05T17:05:41.518Z,101074.38
2023-05-05T17:08:18.006Z,101043.09
2023-05-05T17:10:47.953Z,101041.31
2023-05-05T17:13:18.311Z,101073.63
2023-05-05T17:15:48.386Z,101099.69
2023-05-05T17:18:21.332Z,101125.53
2023-05-05T17:20:52.523Z,101141.28
2023-05-05T17:23:22.962Z,101133.78
2023-05-05T17:25:52.910Z,101111.66
2023-05-05T17:28:23.562Z,101088.44
2023-05-05T17:30:53.534Z,101105.22
2023-05-05T17:33:23.247Z,101124.53
2023-05-05T17:35:53.677Z,101136.25
2023-05-05T17:38:23.387Z,101143.28
2023-05-05T17:40:53.812Z,101135.56
2023-05-05T17:43:23.695Z,101114.47
2023-05-05T17:45:53.452Z,101110.88
2023-05-05T17:48:23.778Z,101115.34
2023-05-05T17:50:54.030Z,101102.69
2023-05-05T17:53:24.387Z,101090.00
2023-05-05T17:55:54.643Z,101079.97
2023-05-05T17:58:24.961Z,101071.06
2023-05-05T18:00:55.460Z,101084.13
2023-05-05T18:03:26.216Z,101093.94
2023-05-05T18:05:58.002Z,101103.41
2023-05-05T18:08:28.157Z,101106.97
2023-05-05T18:10:58.531Z,101104.13
2023-05-05T18:13:28.544Z,101117.19
2023-05-05T18:15:58.932Z,101137.38
2023-05-05T18:18:29.032Z,101138.97
2023-05-05T18:20:59.461Z,101140.97
2023-05-05T18:23:29.390Z,101159.34
2023-05-05T18:25:59.692Z,101181.63
2023-05-05T18:28:29.379Z,101185.69
2023-05-05T18:30:59.797Z,101189.09
2023-05-05T18:33:29.578Z,101167.13
2023-05-05T18:35:59.925Z,101159.63
2023-05-05T18:38:29.945Z,101143.75
2023-05-05T18:41:00.510Z,101138.41
2023-05-05T18:43:30.480Z,101146.63
2023-05-05T18:46:00.792Z,101149.13
2023-05-05T18:48:31.916Z,101156.09
2023-05-05T18:51:06.196Z,101164.31
2023-05-05T18:53:36.800Z,101164.50
2023-05-05T18:56:07.191Z,101155.59
2023-05-05T18:58:37.150Z,101154.28
2023-05-05T19:01:07.528Z,101154.78
2023-05-05T19:03:37.423Z,101159.41
2023-05-05T19:06:08.611Z,101167.38
2023-05-05T19:08:38.503Z,101167.69
2023-05-05T19:11:08.777Z,101160.91
2023-05-05T19:13:40.742Z,101145.66
2023-05-05T19:16:12.133Z,101155.53
2023-05-05T19:18:42.227Z,101166.78
2023-05-05T19:21:12.599Z,101171.03
2023-05-05T19:23:42.512Z,101160.50
2023-05-05T19:26:12.970Z,101164.28
2023-05-05T19:28:42.693Z,101163.34
2023-05-05T19:31:13.208Z,101154.94
2023-05-05T19:33:46.586Z,101155.31
2023-05-05T19:36:17.678Z,101152.28
2023-05-05T19:38:47.745Z,101150.66
2023-05-05T19:41:19.056Z,101160.88
2023-05-05T19:43:49.037Z,101156.97
2023-05-05T19:46:18.900Z,101159.09
2023-05-05T19:48:49.581Z,101162.09
2023-05-05T19:51:19.722Z,101163.50
2023-05-05T19:53:50.026Z,101164.19
2023-05-05T19:56:19.954Z,101163.47
2023-05-05T19:59:01.835Z,101173.34
2023-05-05T20:01:31.966Z,101177.06
2023-05-05T20:04:02.496Z,101182.25
2023-05-05T20:06:33.210Z,101181.31
2023-05-05T20:09:04.032Z,101185.22
2023-05-05T20:11:34.470Z,101191.38
2023-05-05T20:14:04.888Z,101193.16
2023-05-05T20:16:34.841Z,101206.34
2023-05-05T20:19:06.269Z,101212.03
2023-05-05T20:21:36.518Z,101215.47
2023-05-05T20:24:07.697Z,101211.84
2023-05-05T20:26:37.827Z,101215.56
2023-05-05T20:29:08.072Z,101222.16
2023-05-05T20:31:38.579Z,101222.38
2023-05-05T20:34:08.902Z,101218.28
2023-05-05T20:36:38.853Z,101212.91
2023-05-05T20:39:09.238Z,101212.19
2023-05-05T20:41:41.509Z,101212.91
2023-05-05T20:44:12.295Z,101213.09
2023-05-05T20:46:42.930Z,101218.47
2023-05-05T20:49:13.349Z,101211.47
2023-05-05T20:51:43.266Z,101193.56
2023-05-05T20:54:13.019Z,101172.91
2023-05-05T20:56:43.354Z,101158.97
2023-05-05T20:59:13.249Z,101159.13
2023-05-05T21:01:43.853Z,101164.13
2023-05-05T21:04:14.122Z,101160.41
2023-05-05T21:06:43.973Z,101163.28
2023-05-05T21:09:14.290Z,101162.91
2023-05-05T21:11:44.579Z,101169.53
2023-05-05T21:14:14.980Z,101179.56
2023-05-05T21:16:44.930Z,101185.84
2023-05-05T21:19:15.261Z,101177.59
2023-05-05T21:21:45.391Z,101176.25
2023-05-05T21:24:15.795Z,101174.63
2023-05-05T21:26:46.222Z,101178.56
2023-05-05T21:29:16.462Z,101179.47
2023-05-05T21:31:46.720Z,101172.66
2023-05-05T21:34:16.994Z,101154.50
2023-05-05T21:36:46.907Z,101142.50
2023-05-05T21:39:17.476Z,101123.25
2023-05-05T21:41:47.380Z,101112.66
2023-05-05T21:44:19.331Z,101119.06
2023-05-05T21:46:49.580Z,101119.78
2023-05-05T21:49:20.280Z,101118.75
2023-05-05T21:51:51.433Z,101116.06
2023-05-05T21:54:21.563Z,101121.28
2023-05-05T21:56:51.907Z,101122.88
2023-05-05T21:59:22.018Z,101126.66
2023-05-05T22:01:52.337Z,101144.19
2023-05-05T22:04:23.252Z,101147.75
2023-05-05T22:06:53.547Z,101142.63
2023-05-05T22:09:23.393Z,101121.38
2023-05-05T22:11:53.352Z,101120.78
2023-05-05T22:14:23.711Z,101113.31
2023-05-05T22:16:53.669Z,101117.59
2023-05-05T22:19:23.967Z,101109.72
2023-05-05T22:21:54.527Z,101113.44
2023-05-05T22:24:24.790Z,101113.25
2023-05-05T22:26:55.169Z,101119.47
2023-05-05T22:29:26.257Z,101109.81
2023-05-05T22:31:56.349Z,101106.75
2023-05-05T22:34:26.941Z,101101.41
2023-05-05T22:36:56.810Z,101108.38
2023-05-05T22:39:27.189Z,101107.66
2023-05-05T22:41:59.810Z,101111.03
2023-05-05T22:44:30.111Z,101116.38
2023-05-05T22:47:00.107Z,101110.72
2023-05-05T22:49:30.510Z,101114.25
2023-05-05T22:52:00.313Z,101113.72
2023-05-05T22:54:30.546Z,101119.94
2023-05-05T22:57:00.322Z,101119.59
2023-05-05T22:59:30.628Z,101121.88
2023-05-05T23:02:00.388Z,101131.19
2023-05-05T23:04:30.761Z,101136.03
2023-05-05T23:07:00.702Z,101132.31
2023-05-05T23:09:31.051Z,101136.19
2023-05-05T23:12:01.057Z,101145.84
2023-05-05T23:14:31.516Z,101154.97
2023-05-05T23:17:02.019Z,101147.78
2023-05-05T23:19:33.671Z,101152.63
2023-05-05T23:22:03.998Z,101164.94
2023-05-05T23:24:34.300Z,101164.97
2023-05-05T23:27:04.223Z,101168.34
2023-05-05T23:29:34.494Z,101163.69
2023-05-05T23:32:04.247Z,101163.66
2023-05-05T23:34:34.505Z,101162.94
2023-05-05T23:37:06.024Z,101162.28
2023-05-05T23:39:36.234Z,101169.56
2023-05-05T23:42:05.951Z,101173.22
2023-05-05T23:44:36.311Z,101177.72
2023-05-05T23:47:07.935Z,101182.66
2023-05-05T23:49:38.266Z,101182.66
2023-05-05T23:52:08.550Z,101163.72
2023-05-05T23:54:38.287Z,101174.63
2023-05-05T23:57:08.597Z,101189.03
2023-05-05T23:59:38.395Z,101185.31
